Danxian, Hainan

7:47 AM CST on July 04, 2015 (GMT +0800)
Haikou | | Change Station
CLOSE
Current Station
Airport
Location: Haikou,
Elevation: 75 ft
Nearby Weather Stations

Elev 75 ft 19.93 °N, 110.46 °E | Updated 47 minutes ago

Partly Cloudy
Partly Cloudy
81 °F
Feels Like 87 °F
N
2
Wind Variable Wind from East

Today
High -- | Low -- °F
--% Chance of Precip.
Yesterday
High -- | Low -- °F
Precip. -- in
6:07 AM 7:24 PM
Waning Gibbous, 95% visible
Pressure 29.53 in
Visibility 4.3 miles
Clouds Few 2300 ft
Heat Index 87 °F
Dew Point 77 °F
Humidity 89%
Rainfall 0.00 in
Snow Depth Not available.
UV 1 out of 12
Pollen Not available.
Air Quality Not available.
Flu Activity Not available.
METAR ZJHK 032300Z 10001MPS 7000 FEW023TCU 27/25 Q1000 NOSIG

More Conditions Fewer Conditions

Pressure 29.53 in
Visibility 4.3 miles
Clouds Few 2300 ft
Heat Index 87 °F
Dew Point 77 °F
Humidity 89%
Rainfall 0.00 in
Snow Depth Not available.
UV 1 out of 12
Pollen Not available.
Air Quality Not available.
Flu Activity Not available.
METAR ZJHK 032300Z 10001MPS 7000 FEW023TCU 27/25 Q1000 NOSIG

More Conditions Fewer Conditions

10-Day Weather Forecast

×

Almanac

Astronomy

Jul. 04, 2015 Rise Set
Actual Time
Civil Twilight
Nautical Twilight
Astronomical Twilight
Moon
Length of Visible Light
Length of Day
Tomorrow will be .
, % of the Moon is Illuminated

Today's Extremes

Country Highs Country Lows

Community

WunderPhotos

Upload Photos

1,834,823 photos uploaded!

WunderBlogs® & News

Nearby

Air Quality

  Air Quality AQ Index Pollutant
Not available.

Snow Depth

Station Depth Elevation

Earthquake Activity

City Distance Mag. Time & Date
Minimum magnitude displayed is 2.5.

Coastal Water Temperatures

Place Temperature

Stations

Nearby Weather Stations

Station Location Temp. Windchill Dew Point Humidity Wind Precip. Elev Updated Type